Terminal Aerodrome Forecast
Issued by NWS Dallas/Fort Worth, TX

Home | Current Version | Previous Version | Text Only | Print | Product List | Glossary On
Versions: 1 2 3 4 5 6 7 8 9 10 11 12 13 14 15 16 17 18 19 20 21 22 23 24 25 26 27 28 29 30 31 32
000
FTUS44 KFWD 270908 AAA
TAFACT
TAF AMD
KACT 270908Z 2709/2806 12012KT P6SM VCTS BKN015CB OVC080
     FM271000 07010KT P6SM VCSH OVC015
     FM271300 06010KT P6SM OVC010
     FM271600 09010KT 5SM -RA BR VCTS SCT008CB OVC015 PROB30
      2719/2723 4SM TSRA BKN008CB
     FM272300 02006KT P6SM OVC015=

USA.gov is the U.S. government's official web portal to all federal, state and local government web resources and services.